Accueil
METAR-TAF:

METAR-TAF

Aéroports :

Bückeburg, Allemagne

latitude: 52-17N, longitude: 009-05E, altitude: 70 m

Observation

Le bulletin a été fait il y a 1 heure et 2 minutes, à 04:20 UTC
Vent 8 kt de est
Température 11°C
Humidité 82%
Pression 1020 hPa
Visibilité 10 km ou plus
Nuages fragmentés à une hauteur de 5100 ft

METAR: ETHB 200420Z 08008KT 9999 BKN051 11/08 Q1020 BLU BLU

Heure: 07:22 (05:22 UTC)

Prévision

Le bulletin a été fait il y a 1 heure et 15 minutes, à 04:07 UTC
Prévision valable du 20 à 05 UTC au 20 à 14 UTC
Vent 8 kt de est/nord-est
Visibilité 10 km ou plus
Nuages fragmentés à une hauteur de 4500 ft

TAF: ETHB 200407Z 2005/2014 07008KT 9999 NSW BKN045

Observations et prévisions météorologiques de plus de 4000 aéroports (messages METAR et TAF).

Les stations disponibles sont représentées par des disques jaunes et rouges sur la carte.

Passer la souris dessus pour voir le nom de la station.

Cliquer dessus pour voir les observations et prévisions météorologiques.

Pour changer de carte: cliquez sur les boutons verts avec une croix noire pour zoomer, sur le bouton vert avec un tiret pour effectuer un zoom arrière, ou sur les flèches vertes pour les cartes adjacentes.


METAR-TAF: